createdAt,value
2019-03-16T00:00:47.146Z,4.76
2019-03-16T00:02:54.341Z,4.76
2019-03-16T00:05:01.721Z,4.76
2019-03-16T00:07:09.001Z,4.73
2019-03-16T00:09:16.271Z,4.79
2019-03-16T00:11:23.617Z,4.77
2019-03-16T00:13:30.951Z,4.77
2019-03-16T00:15:38.220Z,4.72
2019-03-16T00:17:45.654Z,4.76
2019-03-16T00:19:52.871Z,4.69
2019-03-16T00:22:00.309Z,4.68
2019-03-16T00:24:07.701Z,4.64
2019-03-16T00:26:15.062Z,4.58
2019-03-16T00:28:22.446Z,4.51
2019-03-16T00:30:29.798Z,4.47
2019-03-16T00:32:37.135Z,4.45
2019-03-16T00:34:44.480Z,4.38
2019-03-16T00:36:51.889Z,4.41
2019-03-16T00:38:59.260Z,4.34
2019-03-16T00:41:06.633Z,4.37
2019-03-16T00:43:14.103Z,4.32
2019-03-16T00:45:21.540Z,4.30
2019-03-16T00:47:28.894Z,4.26
2019-03-16T00:49:36.198Z,4.16
2019-03-16T00:51:43.543Z,4.17
2019-03-16T00:53:50.861Z,4.20
2019-03-16T00:55:58.175Z,4.11
2019-03-16T00:58:05.748Z,4.13
2019-03-16T01:00:13.870Z,4.10
2019-03-16T01:02:26.953Z,4.07
2019-03-16T01:04:30.426Z,4.02
2019-03-16T01:06:37.814Z,4.02
2019-03-16T01:08:45.148Z,4.00
2019-03-16T01:10:52.498Z,3.94
2019-03-16T01:12:59.915Z,3.92
2019-03-16T01:15:09.108Z,3.92
2019-03-16T01:17:16.419Z,3.97
2019-03-16T01:19:23.845Z,3.96
2019-03-16T01:21:31.232Z,4.01
2019-03-16T01:23:38.552Z,3.99
2019-03-16T01:25:45.920Z,4.06
2019-03-16T01:27:53.242Z,4.11
2019-03-16T01:30:00.609Z,4.13
2019-03-16T01:32:08.019Z,4.12
2019-03-16T01:34:15.370Z,4.16
2019-03-16T01:36:22.742Z,4.15
2019-03-16T01:38:30.035Z,4.20
2019-03-16T01:40:37.311Z,4.25
2019-03-16T01:42:44.757Z,4.26
2019-03-16T01:44:52.136Z,4.23
2019-03-16T01:46:59.874Z,4.23
2019-03-16T01:49:07.152Z,4.26
2019-03-16T01:51:14.457Z,4.30
2019-03-16T01:53:21.767Z,4.26
2019-03-16T01:55:29.129Z,4.48
2019-03-16T01:57:36.431Z,4.40
2019-03-16T01:59:43.752Z,4.53
2019-03-16T02:01:51.023Z,4.65
2019-03-16T02:03:58.540Z,4.61
2019-03-16T02:06:05.844Z,4.66
2019-03-16T02:08:13.350Z,4.74
2019-03-16T02:10:20.544Z,4.72
2019-03-16T02:12:27.859Z,4.72
2019-03-16T02:14:35.061Z,4.70
2019-03-16T02:16:42.394Z,4.61
2019-03-16T02:18:50.865Z,4.73
2019-03-16T02:20:58.132Z,4.76
2019-03-16T02:23:05.469Z,4.80
2019-03-16T02:25:13.135Z,4.94
2019-03-16T02:27:20.411Z,4.97
2019-03-16T02:29:27.611Z,5.04
2019-03-16T02:31:34.943Z,5.04
2019-03-16T02:33:42.306Z,4.95
2019-03-16T02:35:49.644Z,4.91
2019-03-16T02:37:56.925Z,5.15
2019-03-16T02:40:04.369Z,5.19
2019-03-16T02:42:11.699Z,5.18
2019-03-16T02:44:18.956Z,5.16
2019-03-16T02:46:26.351Z,5.13
2019-03-16T02:48:33.676Z,5.12
2019-03-16T02:50:41.003Z,5.10
2019-03-16T02:52:49.975Z,5.07
2019-03-16T02:54:57.168Z,5.03
2019-03-16T02:57:04.513Z,5.06
2019-03-16T02:59:11.873Z,5.12
2019-03-16T03:01:19.172Z,5.05
2019-03-16T03:03:29.594Z,5.13
2019-03-16T03:05:35.384Z,5.19
2019-03-16T03:07:42.585Z,5.22
2019-03-16T03:09:50.316Z,5.26
2019-03-16T03:11:57.832Z,5.23
2019-03-16T03:14:05.196Z,5.28
2019-03-16T03:16:12.714Z,5.19
2019-03-16T03:18:19.994Z,5.25
2019-03-16T03:20:27.295Z,5.35
2019-03-16T03:22:34.609Z,5.34
2019-03-16T03:24:44.256Z,5.35
2019-03-16T03:26:50.970Z,5.34
2019-03-16T03:28:58.199Z,5.40
2019-03-16T03:31:05.527Z,5.33
2019-03-16T03:33:12.829Z,5.24
2019-03-16T03:35:20.145Z,5.25
2019-03-16T03:37:27.500Z,5.25
2019-03-16T03:39:34.737Z,5.20
2019-03-16T03:41:42.084Z,5.24
2019-03-16T03:43:49.486Z,5.26
2019-03-16T03:45:56.818Z,5.23
2019-03-16T03:48:04.110Z,5.22
2019-03-16T03:50:11.675Z,5.28
2019-03-16T03:52:21.782Z,5.34
2019-03-16T03:54:29.181Z,5.32
2019-03-16T03:56:36.494Z,5.27
2019-03-16T03:58:43.844Z,5.22
2019-03-16T04:00:51.247Z,5.17
2019-03-16T04:02:58.843Z,5.23
2019-03-16T04:05:06.418Z,5.19
2019-03-16T04:07:13.792Z,5.15
2019-03-16T04:09:21.282Z,5.17
2019-03-16T04:11:28.654Z,5.14
2019-03-16T04:13:35.956Z,5.08
2019-03-16T04:15:43.212Z,5.08
2019-03-16T04:17:50.467Z,5.15
2019-03-16T04:19:57.770Z,5.14
2019-03-16T04:22:05.100Z,5.14
2019-03-16T04:24:12.401Z,5.11
2019-03-16T04:26:19.787Z,5.17
2019-03-16T04:28:27.132Z,5.23
2019-03-16T04:30:34.426Z,5.25
2019-03-16T04:32:41.697Z,5.20
2019-03-16T04:34:48.921Z,5.24
2019-03-16T04:36:56.246Z,5.25
2019-03-16T04:39:03.577Z,5.24
2019-03-16T04:41:10.866Z,5.21
2019-03-16T04:43:18.058Z,5.23
2019-03-16T04:45:25.424Z,5.21
2019-03-16T04:47:32.628Z,5.13
2019-03-16T04:49:39.986Z,5.02
2019-03-16T04:51:47.336Z,4.95
2019-03-16T04:53:54.617Z,4.95
2019-03-16T04:56:01.938Z,4.85
2019-03-16T04:58:09.273Z,4.74
2019-03-16T05:00:16.648Z,4.70
2019-03-16T05:02:23.855Z,4.66
2019-03-16T05:04:42.005Z,4.68
2019-03-16T05:06:40.172Z,4.74
2019-03-16T05:08:47.425Z,4.77
2019-03-16T05:10:54.737Z,4.74
2019-03-16T05:13:02.192Z,4.72
2019-03-16T05:15:09.783Z,4.73
2019-03-16T05:17:17.087Z,4.71
2019-03-16T05:19:24.465Z,4.75
2019-03-16T05:21:31.786Z,4.72
2019-03-16T05:23:39.344Z,4.66
2019-03-16T05:25:46.687Z,4.64
2019-03-16T05:27:54.091Z,4.63
2019-03-16T05:30:01.433Z,4.51
2019-03-16T05:32:08.690Z,4.40
2019-03-16T05:34:16.104Z,4.32
2019-03-16T05:36:23.356Z,4.34
2019-03-16T05:38:30.681Z,4.30
2019-03-16T05:40:37.992Z,4.37
2019-03-16T05:42:45.572Z,4.38
2019-03-16T05:44:53.008Z,4.41
2019-03-16T05:47:00.532Z,4.41
2019-03-16T05:49:08.075Z,4.42
2019-03-16T05:51:15.390Z,4.37
2019-03-16T05:53:22.794Z,4.33
2019-03-16T05:55:30.400Z,4.34
2019-03-16T05:57:37.813Z,4.39
2019-03-16T05:59:45.169Z,4.37
2019-03-16T06:01:52.547Z,4.43
2019-03-16T06:03:59.944Z,4.41
2019-03-16T06:06:07.466Z,4.42
2019-03-16T06:08:14.914Z,4.44
2019-03-16T06:10:22.318Z,4.39
2019-03-16T06:12:29.782Z,4.37
2019-03-16T06:14:37.317Z,4.34
2019-03-16T06:16:44.661Z,4.29
2019-03-16T06:18:52.228Z,4.33
2019-03-16T06:20:59.789Z,4.33
2019-03-16T06:23:07.126Z,4.31
2019-03-16T06:25:14.772Z,4.29
2019-03-16T06:27:22.297Z,4.35
2019-03-16T06:29:29.726Z,4.40
2019-03-16T06:31:37.115Z,4.41
2019-03-16T06:33:44.551Z,4.46
2019-03-16T06:35:52.043Z,4.44
2019-03-16T06:37:59.629Z,4.47
2019-03-16T06:40:07.490Z,4.49
2019-03-16T06:42:14.841Z,4.52
2019-03-16T06:44:22.288Z,4.55
2019-03-16T06:46:29.702Z,4.61
2019-03-16T06:48:37.118Z,4.65
2019-03-16T06:50:44.586Z,4.60
2019-03-16T06:52:52.186Z,4.60
2019-03-16T06:54:59.588Z,4.61
2019-03-16T06:57:07.258Z,4.61
2019-03-16T06:59:14.814Z,4.61
2019-03-16T07:01:43.841Z,4.57
2019-03-16T07:03:51.488Z,4.56
2019-03-16T07:05:58.940Z,4.53
2019-03-16T07:08:06.346Z,4.52
2019-03-16T07:10:13.883Z,4.49
2019-03-16T07:12:21.241Z,4.46
2019-03-16T07:14:29.921Z,4.42
2019-03-16T07:16:38.086Z,4.34
2019-03-16T07:18:58.069Z,4.33
2019-03-16T07:20:55.385Z,4.33
2019-03-16T07:23:03.160Z,4.38
2019-03-16T07:25:10.912Z,4.41
2019-03-16T07:27:25.991Z,4.45
2019-03-16T07:29:28.237Z,4.47
2019-03-16T07:31:35.896Z,4.46
2019-03-16T07:33:43.610Z,4.47
2019-03-16T07:35:51.293Z,4.48
2019-03-16T07:37:58.875Z,4.53
2019-03-16T07:40:07.576Z,4.53
2019-03-16T07:42:14.942Z,4.53
2019-03-16T07:44:22.405Z,4.50
2019-03-16T07:46:30.192Z,4.50
2019-03-16T07:48:37.807Z,4.50
2019-03-16T07:50:45.644Z,4.53
2019-03-16T07:52:53.197Z,4.56
2019-03-16T07:55:00.836Z,4.58
2019-03-16T07:57:08.342Z,4.59
2019-03-16T07:59:17.374Z,4.64
2019-03-16T08:01:24.988Z,4.67
2019-03-16T08:03:38.817Z,4.68
2019-03-16T08:05:51.030Z,4.71
2019-03-16T08:07:58.700Z,4.71
2019-03-16T08:10:06.360Z,4.72
2019-03-16T08:12:13.838Z,4.73
2019-03-16T08:14:22.352Z,4.79
2019-03-16T08:16:30.149Z,4.77
2019-03-16T08:18:38.151Z,4.76
2019-03-16T08:20:45.888Z,4.74
2019-03-16T08:22:55.604Z,4.72
2019-03-16T08:25:07.914Z,4.73
2019-03-16T08:27:16.080Z,4.71
2019-03-16T08:29:23.949Z,4.67
2019-03-16T08:31:31.785Z,4.74
2019-03-16T08:33:39.662Z,4.68
2019-03-16T08:35:47.459Z,4.72
2019-03-16T08:37:55.195Z,4.77
2019-03-16T08:40:03.486Z,4.79
2019-03-16T08:42:12.442Z,4.79
2019-03-16T08:44:20.423Z,4.76
2019-03-16T08:46:28.265Z,4.73
2019-03-16T08:48:35.927Z,4.79
2019-03-16T08:50:43.532Z,4.77
2019-03-16T08:52:53.633Z,4.73
2019-03-16T08:55:01.594Z,4.73
2019-03-16T08:57:08.985Z,4.76
2019-03-16T08:59:17.453Z,4.73
2019-03-16T09:01:27.188Z,4.72
2019-03-16T09:03:43.662Z,4.72
2019-03-16T09:05:43.709Z,4.72
2019-03-16T09:07:51.703Z,4.74
2019-03-16T09:09:59.233Z,4.79
2019-03-16T09:12:06.906Z,4.79
2019-03-16T09:14:14.654Z,4.82
2019-03-16T09:16:23.277Z,4.90
2019-03-16T09:18:34.199Z,4.97
2019-03-16T09:20:53.842Z,4.92
2019-03-16T09:23:01.434Z,4.91
2019-03-16T09:25:09.773Z,4.93
2019-03-16T09:27:17.129Z,4.91
2019-03-16T09:29:24.565Z,4.94
2019-03-16T09:31:32.199Z,4.94
2019-03-16T09:33:39.750Z,4.97
2019-03-16T09:35:47.610Z,5.03
2019-03-16T09:37:55.357Z,5.11
2019-03-16T09:40:03.608Z,5.11
2019-03-16T09:42:15.417Z,5.09
2019-03-16T09:44:24.939Z,5.16
2019-03-16T09:46:36.719Z,5.23
2019-03-16T09:48:45.583Z,5.32
2019-03-16T09:50:53.113Z,5.36
2019-03-16T09:53:00.707Z,5.39
2019-03-16T09:55:08.664Z,5.43
2019-03-16T09:57:16.292Z,5.46
2019-03-16T09:59:24.323Z,5.46
2019-03-16T10:01:31.897Z,5.42
2019-03-16T10:03:39.523Z,5.40
2019-03-16T10:05:47.140Z,5.36
2019-03-16T10:07:54.667Z,5.39
2019-03-16T10:10:02.308Z,5.38
2019-03-16T10:12:09.761Z,5.39
2019-03-16T10:14:17.529Z,5.38
2019-03-16T10:16:25.280Z,5.41
2019-03-16T10:18:33.121Z,5.40
2019-03-16T10:20:40.850Z,5.42
2019-03-16T10:22:48.282Z,5.40
2019-03-16T10:24:56.123Z,5.40
2019-03-16T10:27:03.801Z,5.43
2019-03-16T10:29:11.316Z,5.43
2019-03-16T10:31:23.689Z,5.45
2019-03-16T10:33:35.444Z,5.50
2019-03-16T10:35:42.993Z,5.54
2019-03-16T10:37:50.798Z,5.61
2019-03-16T10:39:58.369Z,5.68
2019-03-16T10:42:10.876Z,5.68
2019-03-16T10:44:23.626Z,5.68
2019-03-16T10:46:31.678Z,5.73
2019-03-16T10:48:39.347Z,5.77
2019-03-16T10:50:47.423Z,5.85
2019-03-16T10:52:55.601Z,5.91
2019-03-16T10:55:10.478Z,5.98
2019-03-16T10:57:18.486Z,6.00
2019-03-16T10:59:27.846Z,6.09
2019-03-16T11:01:46.517Z,6.04
2019-03-16T11:03:57.011Z,6.06
2019-03-16T11:06:06.991Z,6.00
2019-03-16T11:08:21.346Z,5.95
2019-03-16T11:10:31.278Z,5.91
2019-03-16T11:12:39.781Z,5.92
2019-03-16T11:14:56.562Z,5.96
2019-03-16T11:17:04.349Z,5.92
2019-03-16T11:19:14.095Z,5.90
2019-03-16T11:21:23.527Z,5.80
2019-03-16T11:23:31.252Z,5.74
2019-03-16T11:25:44.167Z,5.72
2019-03-16T11:27:51.759Z,5.74
2019-03-16T11:29:59.426Z,5.77
2019-03-16T11:32:06.884Z,5.84
2019-03-16T11:34:14.422Z,5.85
2019-03-16T11:36:21.920Z,5.91
2019-03-16T11:38:29.556Z,5.92
2019-03-16T11:40:37.183Z,5.92
2019-03-16T11:42:44.846Z,6.01
2019-03-16T11:44:52.591Z,6.04
2019-03-16T11:47:00.388Z,6.10
2019-03-16T11:49:07.984Z,6.08
2019-03-16T11:51:15.614Z,6.13
2019-03-16T11:53:29.298Z,6.11
2019-03-16T11:55:37.163Z,6.11
2019-03-16T11:57:45.750Z,6.17
2019-03-16T11:59:53.660Z,6.16
2019-03-16T12:02:05.453Z,6.27
2019-03-16T12:04:10.904Z,6.32
2019-03-16T12:06:18.496Z,6.39
2019-03-16T12:08:29.452Z,6.39
2019-03-16T12:10:37.143Z,6.41
2019-03-16T12:12:45.075Z,6.37
2019-03-16T12:14:52.881Z,6.33
2019-03-16T12:17:06.509Z,6.30
2019-03-16T12:19:14.303Z,6.29
2019-03-16T12:21:26.648Z,6.25
2019-03-16T12:23:42.457Z,6.25
2019-03-16T12:26:10.857Z,6.29
2019-03-16T12:28:25.637Z,6.24
2019-03-16T12:30:33.239Z,6.24
2019-03-16T12:32:52.493Z,6.30
2019-03-16T12:35:28.676Z,6.29
2019-03-16T12:37:38.536Z,6.36
2019-03-16T12:39:48.697Z,6.44
2019-03-16T12:41:56.460Z,6.48
2019-03-16T12:44:04.054Z,6.65
2019-03-16T12:46:12.091Z,6.72
2019-03-16T12:48:20.286Z,6.78
2019-03-16T12:50:28.411Z,6.74
2019-03-16T12:52:36.678Z,6.74
2019-03-16T12:54:44.613Z,6.73
2019-03-16T12:56:52.270Z,6.81
2019-03-16T12:59:10.799Z,6.78
2019-03-16T13:01:15.650Z,6.85
2019-03-16T13:03:30.379Z,6.84
2019-03-16T13:05:38.363Z,6.82
2019-03-16T13:07:49.370Z,6.80
2019-03-16T13:10:00.908Z,6.81
2019-03-16T13:12:14.243Z,6.83
2019-03-16T13:14:22.297Z,6.85
2019-03-16T13:16:53.638Z,6.91
2019-03-16T13:19:02.475Z,6.93
2019-03-16T13:21:20.105Z,7.00
2019-03-16T13:23:42.156Z,7.09
2019-03-16T13:26:04.863Z,7.19
2019-03-16T13:28:15.274Z,7.20
2019-03-16T13:30:23.116Z,7.37
2019-03-16T13:32:57.947Z,7.36
2019-03-16T13:35:10.611Z,7.32
2019-03-16T13:37:23.811Z,7.25
2019-03-16T13:39:34.366Z,7.20
2019-03-16T13:41:41.990Z,7.12
2019-03-16T13:43:55.848Z,7.13
2019-03-16T13:46:07.133Z,7.06
2019-03-16T13:48:16.141Z,7.14
2019-03-16T13:50:25.133Z,7.19
2019-03-16T13:52:36.428Z,7.22
2019-03-16T13:54:44.567Z,7.20
2019-03-16T13:56:58.867Z,7.15
2019-03-16T13:59:07.653Z,7.11
2019-03-16T14:01:16.342Z,6.77
2019-03-16T14:03:24.788Z,6.66
2019-03-16T14:05:33.415Z,6.66
2019-03-16T14:07:42.263Z,6.73
2019-03-16T14:09:50.467Z,6.81
2019-03-16T14:11:58.668Z,7.07
2019-03-16T14:14:08.238Z,6.99
2019-03-16T14:16:16.404Z,7.01
2019-03-16T14:18:25.367Z,7.15
2019-03-16T14:20:53.827Z,7.32
2019-03-16T14:23:04.383Z,7.34
2019-03-16T14:25:12.891Z,7.24
2019-03-16T14:27:24.230Z,7.19
2019-03-16T14:29:32.817Z,7.16
2019-03-16T14:31:41.066Z,7.05
2019-03-16T14:33:48.954Z,6.91
2019-03-16T14:35:56.936Z,6.78
2019-03-16T14:38:04.746Z,6.70
2019-03-16T14:40:13.149Z,6.71
2019-03-16T14:42:20.924Z,6.78
2019-03-16T14:44:29.504Z,6.78
2019-03-16T14:46:37.075Z,6.80
2019-03-16T14:48:46.086Z,6.81
2019-03-16T14:50:54.043Z,6.79
2019-03-16T14:53:02.026Z,6.79
2019-03-16T14:55:10.272Z,6.81
2019-03-16T14:57:18.013Z,6.82
2019-03-16T14:59:25.590Z,6.81
2019-03-16T15:01:33.092Z,6.84
2019-03-16T15:03:40.764Z,6.71
2019-03-16T15:05:52.002Z,6.64
2019-03-16T15:08:00.075Z,6.55
2019-03-16T15:10:08.327Z,6.50
2019-03-16T15:12:16.211Z,6.47
2019-03-16T15:14:24.977Z,6.42
2019-03-16T15:16:32.455Z,6.51
2019-03-16T15:18:40.228Z,6.50
2019-03-16T15:20:48.415Z,6.50
2019-03-16T15:22:56.513Z,6.53
2019-03-16T15:25:04.505Z,6.54
2019-03-16T15:27:15.667Z,6.52
2019-03-16T15:29:22.305Z,6.51
2019-03-16T15:31:30.452Z,6.51
2019-03-16T15:33:38.464Z,6.41
2019-03-16T15:35:46.342Z,6.25
2019-03-16T15:37:54.011Z,6.23
2019-03-16T15:40:01.601Z,6.07
2019-03-16T15:42:09.251Z,6.06
2019-03-16T15:44:16.811Z,6.09
2019-03-16T15:46:24.498Z,6.01
2019-03-16T15:48:32.111Z,6.01
2019-03-16T15:50:39.730Z,5.99
2019-03-16T15:52:47.287Z,5.92
2019-03-16T15:54:55.004Z,5.81
2019-03-16T15:57:02.613Z,5.94
2019-03-16T15:59:10.213Z,5.87
2019-03-16T16:01:17.810Z,5.84
2019-03-16T16:03:25.692Z,5.74
2019-03-16T16:05:33.562Z,5.86
2019-03-16T16:07:41.158Z,5.74
2019-03-16T16:09:50.110Z,5.82
2019-03-16T16:11:59.743Z,5.80
2019-03-16T16:14:07.306Z,5.82
2019-03-16T16:16:14.987Z,5.82
2019-03-16T16:18:22.919Z,5.80
2019-03-16T16:20:31.607Z,5.86
2019-03-16T16:22:39.312Z,5.95
2019-03-16T16:24:48.129Z,5.97
2019-03-16T16:26:55.784Z,5.92
2019-03-16T16:29:03.519Z,5.99
2019-03-16T16:31:16.487Z,5.91
2019-03-16T16:33:22.687Z,6.02
2019-03-16T16:35:30.260Z,6.08
2019-03-16T16:37:38.290Z,6.03
2019-03-16T16:39:46.930Z,6.04
2019-03-16T16:41:54.701Z,6.00
2019-03-16T16:44:03.124Z,6.05
2019-03-16T16:46:11.120Z,6.02
2019-03-16T16:48:18.920Z,6.08
2019-03-16T16:50:26.655Z,6.06
2019-03-16T16:52:35.014Z,6.04
2019-03-16T16:54:42.717Z,6.07
2019-03-16T16:56:50.903Z,6.11
2019-03-16T16:58:59.136Z,6.16
2019-03-16T17:01:06.939Z,6.15
2019-03-16T17:03:14.451Z,6.11
2019-03-16T17:05:21.931Z,6.12
2019-03-16T17:07:29.994Z,6.16
2019-03-16T17:09:37.668Z,6.16
2019-03-16T17:11:45.257Z,6.13
2019-03-16T17:13:53.100Z,6.15
2019-03-16T17:16:00.726Z,6.12
2019-03-16T17:18:08.441Z,6.16
2019-03-16T17:20:16.420Z,6.12
2019-03-16T17:22:24.117Z,6.09
2019-03-16T17:24:32.488Z,6.12
2019-03-16T17:26:40.093Z,6.10
2019-03-16T17:28:48.797Z,6.13
2019-03-16T17:30:58.770Z,6.07
2019-03-16T17:33:06.544Z,6.12
2019-03-16T17:35:14.387Z,6.17
2019-03-16T17:37:22.858Z,6.13
2019-03-16T17:39:30.546Z,6.20
2019-03-16T17:41:38.087Z,6.18
2019-03-16T17:43:45.974Z,6.20
2019-03-16T17:45:53.582Z,6.21
2019-03-16T17:48:01.228Z,6.19
2019-03-16T17:50:09.735Z,6.20
2019-03-16T17:52:17.669Z,6.18
2019-03-16T17:54:25.196Z,6.12
2019-03-16T17:56:32.713Z,6.11
2019-03-16T17:58:40.173Z,6.12
2019-03-16T18:00:48.822Z,6.04
2019-03-16T18:02:56.381Z,6.03
2019-03-16T18:05:04.123Z,5.93
2019-03-16T18:07:12.681Z,5.96
2019-03-16T18:09:20.277Z,5.97
2019-03-16T18:11:27.889Z,5.93
2019-03-16T18:13:35.609Z,5.84
2019-03-16T18:15:43.337Z,5.89
2019-03-16T18:17:50.966Z,5.82
2019-03-16T18:19:58.517Z,5.76
2019-03-16T18:22:06.117Z,5.75
2019-03-16T18:24:13.726Z,5.74
2019-03-16T18:26:21.630Z,5.68
2019-03-16T18:28:29.604Z,5.66
2019-03-16T18:30:37.293Z,5.59
2019-03-16T18:32:45.135Z,5.55
2019-03-16T18:34:52.729Z,5.50
2019-03-16T18:37:00.896Z,5.51
2019-03-16T18:39:09.540Z,5.41
2019-03-16T18:41:17.393Z,5.34
2019-03-16T18:43:25.029Z,5.36
2019-03-16T18:45:32.732Z,5.32
2019-03-16T18:47:40.653Z,5.33
2019-03-16T18:49:48.314Z,5.32
2019-03-16T18:51:58.363Z,5.21
2019-03-16T18:54:06.056Z,5.17
2019-03-16T18:56:13.843Z,5.24
2019-03-16T18:58:21.364Z,5.24
2019-03-16T19:00:29.645Z,5.26
2019-03-16T19:02:37.245Z,5.24
2019-03-16T19:04:45.447Z,5.20
2019-03-16T19:06:53.655Z,5.28
2019-03-16T19:09:01.615Z,5.18
2019-03-16T19:11:09.240Z,5.09
2019-03-16T19:13:16.964Z,5.13
2019-03-16T19:15:24.825Z,5.02
2019-03-16T19:17:32.624Z,4.89
2019-03-16T19:19:40.413Z,4.92
2019-03-16T19:21:50.278Z,4.85
2019-03-16T19:23:57.914Z,4.91
2019-03-16T19:26:05.632Z,4.95
2019-03-16T19:28:13.547Z,4.85
2019-03-16T19:30:21.983Z,4.75
2019-03-16T19:32:33.997Z,4.81
2019-03-16T19:34:39.320Z,4.77
2019-03-16T19:36:46.922Z,4.72
2019-03-16T19:38:54.706Z,4.65
2019-03-16T19:41:02.469Z,4.64
2019-03-16T19:43:10.461Z,4.46
2019-03-16T19:45:18.324Z,4.35
2019-03-16T19:47:26.052Z,4.35
2019-03-16T19:49:34.247Z,4.36
2019-03-16T19:51:41.975Z,4.31
2019-03-16T19:53:49.714Z,4.30
2019-03-16T19:55:57.519Z,4.28
2019-03-16T19:58:05.237Z,4.27
2019-03-16T20:00:15.639Z,4.24
2019-03-16T20:02:23.564Z,4.23
2019-03-16T20:04:36.137Z,4.20
2019-03-16T20:06:41.822Z,4.20
2019-03-16T20:08:49.475Z,4.13
2019-03-16T20:11:05.897Z,4.09
2019-03-16T20:13:06.571Z,4.17
2019-03-16T20:15:15.443Z,3.99
2019-03-16T20:17:23.176Z,4.05
2019-03-16T20:19:30.708Z,3.97
2019-03-16T20:21:38.596Z,3.90
2019-03-16T20:23:47.340Z,3.88
2019-03-16T20:25:55.075Z,3.93
2019-03-16T20:28:03.159Z,3.92
2019-03-16T20:30:11.505Z,3.89
2019-03-16T20:32:20.371Z,3.86
2019-03-16T20:34:28.155Z,3.80
2019-03-16T20:36:36.210Z,3.71
2019-03-16T20:38:44.071Z,3.70
2019-03-16T20:40:51.803Z,3.60
2019-03-16T20:42:59.609Z,3.66
2019-03-16T20:45:07.953Z,3.63
2019-03-16T20:47:16.206Z,3.56
2019-03-16T20:49:24.069Z,3.52
2019-03-16T20:51:31.748Z,3.55
2019-03-16T20:53:39.831Z,3.61
2019-03-16T20:55:47.972Z,3.52
2019-03-16T20:57:56.140Z,3.57
2019-03-16T21:00:04.476Z,3.61
2019-03-16T21:02:12.195Z,3.57
2019-03-16T21:04:19.909Z,3.52
2019-03-16T21:06:27.660Z,3.49
2019-03-16T21:08:35.388Z,3.53
2019-03-16T21:10:43.363Z,3.53
2019-03-16T21:12:51.162Z,3.43
2019-03-16T21:14:59.045Z,3.50
2019-03-16T21:17:06.746Z,3.51
2019-03-16T21:19:14.377Z,3.54
2019-03-16T21:21:22.046Z,3.53
2019-03-16T21:23:29.841Z,3.51
2019-03-16T21:25:37.818Z,3.48
2019-03-16T21:27:45.671Z,3.44
2019-03-16T21:29:53.342Z,3.34
2019-03-16T21:32:01.476Z,3.25
2019-03-16T21:34:09.174Z,3.26
2019-03-16T21:36:17.186Z,3.23
2019-03-16T21:38:25.035Z,3.18
2019-03-16T21:40:32.755Z,3.20
2019-03-16T21:42:40.540Z,3.05
2019-03-16T21:44:48.241Z,3.13
2019-03-16T21:46:57.045Z,3.13
2019-03-16T21:49:04.955Z,3.22
2019-03-16T21:51:12.867Z,3.28
2019-03-16T21:53:20.673Z,3.19
2019-03-16T21:55:28.462Z,3.12
2019-03-16T21:57:36.663Z,3.13
2019-03-16T21:59:44.260Z,3.07
2019-03-16T22:01:52.213Z,3.06
2019-03-16T22:04:01.321Z,3.08
2019-03-16T22:06:09.699Z,2.95
2019-03-16T22:08:18.029Z,2.98
2019-03-16T22:10:26.303Z,3.02
2019-03-16T22:12:34.784Z,2.90
2019-03-16T22:14:42.910Z,2.77
2019-03-16T22:16:50.669Z,2.81
2019-03-16T22:18:58.644Z,2.89
2019-03-16T22:21:06.754Z,2.82
2019-03-16T22:23:14.494Z,2.88
2019-03-16T22:25:22.991Z,2.92
2019-03-16T22:27:30.789Z,2.84
2019-03-16T22:29:39.223Z,2.87
2019-03-16T22:31:47.124Z,2.97
2019-03-16T22:33:55.029Z,2.94
2019-03-16T22:36:03.056Z,2.96
2019-03-16T22:38:10.665Z,3.13
2019-03-16T22:40:18.502Z,3.13
2019-03-16T22:42:26.258Z,3.08
2019-03-16T22:44:34.139Z,3.10
2019-03-16T22:46:42.343Z,3.29
2019-03-16T22:48:50.098Z,3.38
2019-03-16T22:50:57.798Z,3.44
2019-03-16T22:53:05.590Z,3.49
2019-03-16T22:55:15.864Z,3.47
2019-03-16T22:57:23.238Z,3.49
2019-03-16T22:59:30.903Z,3.54
2019-03-16T23:01:38.940Z,3.62
2019-03-16T23:03:46.893Z,3.70
2019-03-16T23:05:55.727Z,3.66
2019-03-16T23:08:03.316Z,3.71
2019-03-16T23:10:24.862Z,3.75
2019-03-16T23:12:32.584Z,3.81
2019-03-16T23:14:40.048Z,3.87
2019-03-16T23:16:47.672Z,3.89
2019-03-16T23:18:55.396Z,3.93
2019-03-16T23:21:03.073Z,3.93
2019-03-16T23:23:10.702Z,4.02
2019-03-16T23:25:18.220Z,4.02
2019-03-16T23:27:25.718Z,4.04
2019-03-16T23:29:33.111Z,4.08
2019-03-16T23:31:40.480Z,4.04
2019-03-16T23:33:48.210Z,4.05
2019-03-16T23:35:55.551Z,4.08
2019-03-16T23:38:02.983Z,4.06
2019-03-16T23:40:10.759Z,4.08
2019-03-16T23:42:18.155Z,4.08
2019-03-16T23:44:25.590Z,4.15
2019-03-16T23:46:32.993Z,4.15
2019-03-16T23:48:40.469Z,4.14
2019-03-16T23:50:47.992Z,4.13
2019-03-16T23:52:55.436Z,4.15
2019-03-16T23:55:02.802Z,4.10
2019-03-16T23:57:10.607Z,4.06
2019-03-16T23:59:18.039Z,4.09
